sensor_id;sensor_type;location;lat;lon;timestamp;noise_LAeq;noise_LA_min;noise_LA_max;noise_LA01;noise_LA95
74496;Laerm;62979;55.720;37.606;2023-07-09T00:00:16;48.61;38.69;60.49;;
74496;Laerm;62979;55.720;37.606;2023-07-09T00:02:45;42.66;38.50;49.31;;
74496;Laerm;62979;55.720;37.606;2023-07-09T00:05:13;48.72;39.81;60.67;;
74496;Laerm;62979;55.720;37.606;2023-07-09T00:07:42;45.38;38.80;55.55;;
74496;Laerm;62979;55.720;37.606;2023-07-09T00:10:17;46.94;38.67;58.86;;
74496;Laerm;62979;55.720;37.606;2023-07-09T00:12:45;44.60;38.54;55.34;;
74496;Laerm;62979;55.720;37.606;2023-07-09T00:15:14;45.50;37.69;54.77;;
74496;Laerm;62979;55.720;37.606;2023-07-09T00:17:44;48.23;37.98;60.17;;
74496;Laerm;62979;55.720;37.606;2023-07-09T00:20:14;45.05;38.84;55.64;;
74496;Laerm;62979;55.720;37.606;2023-07-09T00:22:42;44.34;37.92;56.45;;
74496;Laerm;62979;55.720;37.606;2023-07-09T00:25:15;48.23;39.22;57.04;;
74496;Laerm;62979;55.720;37.606;2023-07-09T00:27:42;50.47;39.13;63.17;;
74496;Laerm;62979;55.720;37.606;2023-07-09T00:30:17;43.13;37.74;50.56;;
74496;Laerm;62979;55.720;37.606;2023-07-09T00:32:45;47.82;37.95;63.70;;
74496;Laerm;62979;55.720;37.606;2023-07-09T00:35:12;45.89;37.69;57.01;;
74496;Laerm;62979;55.720;37.606;2023-07-09T00:37:42;46.64;39.05;58.60;;
74496;Laerm;62979;55.720;37.606;2023-07-09T00:40:19;47.98;37.93;59.10;;
74496;Laerm;62979;55.720;37.606;2023-07-09T00:42:52;46.77;39.57;55.51;;
74496;Laerm;62979;55.720;37.606;2023-07-09T00:45:22;47.66;39.18;61.78;;
74496;Laerm;62979;55.720;37.606;2023-07-09T00:47:55;47.00;38.40;60.08;;
74496;Laerm;62979;55.720;37.606;2023-07-09T00:50:36;44.06;38.31;51.44;;
74496;Laerm;62979;55.720;37.606;2023-07-09T00:53:13;44.13;39.29;50.47;;
74496;Laerm;62979;55.720;37.606;2023-07-09T00:55:52;44.92;39.09;58.06;;
74496;Laerm;62979;55.720;37.606;2023-07-09T00:58:23;47.31;39.56;56.35;;
74496;Laerm;62979;55.720;37.606;2023-07-09T01:00:56;43.53;38.00;53.04;;
74496;Laerm;62979;55.720;37.606;2023-07-09T01:03:32;43.78;38.51;50.09;;
74496;Laerm;62979;55.720;37.606;2023-07-09T01:06:02;44.26;38.93;52.99;;
74496;Laerm;62979;55.720;37.606;2023-07-09T01:08:34;49.48;40.37;65.21;;
74496;Laerm;62979;55.720;37.606;2023-07-09T01:11:03;44.72;38.40;55.03;;
74496;Laerm;62979;55.720;37.606;2023-07-09T01:13:34;46.48;38.73;56.13;;
74496;Laerm;62979;55.720;37.606;2023-07-09T01:16:02;47.14;38.93;55.96;;
74496;Laerm;62979;55.720;37.606;2023-07-09T01:18:29;44.43;37.97;52.40;;
74496;Laerm;62979;55.720;37.606;2023-07-09T01:21:08;43.02;38.50;49.89;;
74496;Laerm;62979;55.720;37.606;2023-07-09T01:23:41;44.76;38.25;54.79;;
74496;Laerm;62979;55.720;37.606;2023-07-09T01:26:11;45.35;38.37;63.02;;
74496;Laerm;62979;55.720;37.606;2023-07-09T01:28:38;47.43;39.80;61.01;;
74496;Laerm;62979;55.720;37.606;2023-07-09T01:31:07;46.84;39.07;64.72;;
74496;Laerm;62979;55.720;37.606;2023-07-09T01:33:34;44.60;38.80;50.59;;
74496;Laerm;62979;55.720;37.606;2023-07-09T01:36:04;46.45;39.58;54.88;;
74496;Laerm;62979;55.720;37.606;2023-07-09T01:38:32;53.34;38.97;66.86;;
74496;Laerm;62979;55.720;37.606;2023-07-09T01:41:00;45.52;38.95;57.71;;
74496;Laerm;62979;55.720;37.606;2023-07-09T01:43:29;50.58;38.75;67.32;;
74496;Laerm;62979;55.720;37.606;2023-07-09T01:45:56;47.86;39.53;60.79;;
74496;Laerm;62979;55.720;37.606;2023-07-09T01:48:25;46.56;38.15;53.81;;
74496;Laerm;62979;55.720;37.606;2023-07-09T01:50:53;45.95;39.46;62.45;;
74496;Laerm;62979;55.720;37.606;2023-07-09T01:53:25;44.93;40.20;58.74;;
74496;Laerm;62979;55.720;37.606;2023-07-09T01:55:53;44.08;38.95;60.23;;
74496;Laerm;62979;55.720;37.606;2023-07-09T01:58:20;43.89;39.28;59.24;;
74496;Laerm;62979;55.720;37.606;2023-07-09T02:00:50;50.22;39.68;63.19;;
74496;Laerm;62979;55.720;37.606;2023-07-09T02:03:17;42.77;37.51;51.72;;
74496;Laerm;62979;55.720;37.606;2023-07-09T02:05:44;42.64;38.00;54.44;;
74496;Laerm;62979;55.720;37.606;2023-07-09T02:08:11;45.07;38.47;55.74;;
74496;Laerm;62979;55.720;37.606;2023-07-09T02:10:39;41.70;37.83;54.98;;
74496;Laerm;62979;55.720;37.606;2023-07-09T02:13:06;42.10;38.12;50.89;;
74496;Laerm;62979;55.720;37.606;2023-07-09T02:15:33;44.09;37.37;57.58;;
74496;Laerm;62979;55.720;37.606;2023-07-09T02:18:00;40.90;37.62;50.51;;
74496;Laerm;62979;55.720;37.606;2023-07-09T02:20:27;40.73;37.43;44.86;;
74496;Laerm;62979;55.720;37.606;2023-07-09T02:22:54;43.53;37.66;54.84;;
74496;Laerm;62979;55.720;37.606;2023-07-09T02:25:21;42.18;37.91;47.82;;
74496;Laerm;62979;55.720;37.606;2023-07-09T02:27:49;48.19;37.43;59.53;;
74496;Laerm;62979;55.720;37.606;2023-07-09T02:30:16;43.11;37.53;51.83;;
74496;Laerm;62979;55.720;37.606;2023-07-09T02:32:42;41.37;36.87;55.67;;
74496;Laerm;62979;55.720;37.606;2023-07-09T02:35:09;47.82;37.96;63.28;;
74496;Laerm;62979;55.720;37.606;2023-07-09T02:37:37;48.78;38.21;66.83;;
74496;Laerm;62979;55.720;37.606;2023-07-09T02:40:09;43.78;37.75;56.73;;
74496;Laerm;62979;55.720;37.606;2023-07-09T02:42:36;41.34;37.15;47.67;;
74496;Laerm;62979;55.720;37.606;2023-07-09T02:45:06;41.23;37.46;49.43;;
74496;Laerm;62979;55.720;37.606;2023-07-09T02:47:33;56.75;38.85;66.92;;
74496;Laerm;62979;55.720;37.606;2023-07-09T02:50:00;47.03;38.60;60.18;;
74496;Laerm;62979;55.720;37.606;2023-07-09T02:52:28;47.15;38.58;58.45;;
74496;Laerm;62979;55.720;37.606;2023-07-09T02:54:55;46.16;38.21;59.64;;
74496;Laerm;62979;55.720;37.606;2023-07-09T02:57:22;47.15;38.65;56.61;;
74496;Laerm;62979;55.720;37.606;2023-07-09T02:59:49;46.42;37.74;59.33;;
74496;Laerm;62979;55.720;37.606;2023-07-09T03:02:17;45.08;37.20;55.93;;
74496;Laerm;62979;55.720;37.606;2023-07-09T03:04:44;49.37;38.38;59.81;;
74496;Laerm;62979;55.720;37.606;2023-07-09T03:07:11;57.47;37.61;67.19;;
74496;Laerm;62979;55.720;37.606;2023-07-09T03:09:38;46.82;37.60;64.30;;
74496;Laerm;62979;55.720;37.606;2023-07-09T03:12:06;47.91;37.97;61.43;;
74496;Laerm;62979;55.720;37.606;2023-07-09T03:14:33;49.26;36.64;61.52;;
74496;Laerm;62979;55.720;37.606;2023-07-09T03:17:00;53.73;38.36;64.90;;
74496;Laerm;62979;55.720;37.606;2023-07-09T03:19:29;49.17;36.34;63.42;;
74496;Laerm;62979;55.720;37.606;2023-07-09T03:21:55;49.03;36.91;65.88;;
74496;Laerm;62979;55.720;37.606;2023-07-09T03:24:22;46.04;37.19;63.94;;
74496;Laerm;62979;55.720;37.606;2023-07-09T03:26:49;43.94;37.00;63.71;;
74496;Laerm;62979;55.720;37.606;2023-07-09T03:29:16;59.69;43.52;80.06;;
74496;Laerm;62979;55.720;37.606;2023-07-09T03:31:43;46.53;37.26;58.81;;
74496;Laerm;62979;55.720;37.606;2023-07-09T03:34:10;49.97;38.48;62.26;;
74496;Laerm;62979;55.720;37.606;2023-07-09T03:36:40;47.03;37.35;61.02;;
74496;Laerm;62979;55.720;37.606;2023-07-09T03:39:07;46.45;36.41;59.42;;
74496;Laerm;62979;55.720;37.606;2023-07-09T03:41:34;56.42;37.38;68.75;;
74496;Laerm;62979;55.720;37.606;2023-07-09T03:44:01;55.60;38.81;65.58;;
74496;Laerm;62979;55.720;37.606;2023-07-09T03:46:28;41.97;36.89;66.52;;
74496;Laerm;62979;55.720;37.606;2023-07-09T03:48:57;48.58;37.74;62.09;;
74496;Laerm;62979;55.720;37.606;2023-07-09T03:51:24;44.56;36.67;55.77;;
74496;Laerm;62979;55.720;37.606;2023-07-09T03:53:52;50.90;37.06;72.14;;
74496;Laerm;62979;55.720;37.606;2023-07-09T03:56:20;48.23;37.95;60.19;;
74496;Laerm;62979;55.720;37.606;2023-07-09T03:58:47;47.84;37.74;62.90;;
74496;Laerm;62979;55.720;37.606;2023-07-09T04:01:13;43.50;37.79;56.12;;
74496;Laerm;62979;55.720;37.606;2023-07-09T04:03:41;47.33;38.25;62.34;;
74496;Laerm;62979;55.720;37.606;2023-07-09T04:06:08;48.58;36.82;58.78;;
74496;Laerm;62979;55.720;37.606;2023-07-09T04:08:35;51.54;39.86;69.03;;
74496;Laerm;62979;55.720;37.606;2023-07-09T04:11:05;54.83;44.51;71.90;;
74496;Laerm;62979;55.720;37.606;2023-07-09T04:13:32;57.39;43.94;69.14;;
74496;Laerm;62979;55.720;37.606;2023-07-09T04:15:59;59.67;39.02;75.00;;
74496;Laerm;62979;55.720;37.606;2023-07-09T04:18:26;48.29;39.30;59.49;;
74496;Laerm;62979;55.720;37.606;2023-07-09T04:20:53;49.75;38.54;58.80;;
74496;Laerm;62979;55.720;37.606;2023-07-09T04:23:20;46.47;38.74;59.49;;
74496;Laerm;62979;55.720;37.606;2023-07-09T04:25:47;49.99;40.04;61.41;;
74496;Laerm;62979;55.720;37.606;2023-07-09T04:28:16;48.73;39.01;61.74;;
74496;Laerm;62979;55.720;37.606;2023-07-09T04:30:47;49.48;36.71;73.65;;
74496;Laerm;62979;55.720;37.606;2023-07-09T04:33:15;50.64;37.70;62.90;;
74496;Laerm;62979;55.720;37.606;2023-07-09T04:35:44;47.76;40.13;59.46;;
74496;Laerm;62979;55.720;37.606;2023-07-09T04:38:12;48.36;38.74;60.68;;
74496;Laerm;62979;55.720;37.606;2023-07-09T04:40:40;47.67;39.25;65.71;;
74496;Laerm;62979;55.720;37.606;2023-07-09T04:43:07;48.50;38.23;66.79;;
74496;Laerm;62979;55.720;37.606;2023-07-09T04:45:35;46.72;38.40;66.19;;
74496;Laerm;62979;55.720;37.606;2023-07-09T04:48:03;47.76;37.07;65.57;;
74496;Laerm;62979;55.720;37.606;2023-07-09T04:50:30;48.80;38.25;66.44;;
74496;Laerm;62979;55.720;37.606;2023-07-09T04:52:56;49.25;39.25;60.19;;
74496;Laerm;62979;55.720;37.606;2023-07-09T04:55:23;46.99;38.38;57.21;;
74496;Laerm;62979;55.720;37.606;2023-07-09T04:57:52;49.77;40.24;63.63;;
74496;Laerm;62979;55.720;37.606;2023-07-09T05:00:19;50.24;41.70;58.43;;
74496;Laerm;62979;55.720;37.606;2023-07-09T05:02:47;52.61;38.11;68.99;;
74496;Laerm;62979;55.720;37.606;2023-07-09T05:05:14;50.00;38.40;61.28;;
74496;Laerm;62979;55.720;37.606;2023-07-09T05:07:41;51.94;38.72;65.75;;
74496;Laerm;62979;55.720;37.606;2023-07-09T05:10:09;51.02;38.08;63.88;;
74496;Laerm;62979;55.720;37.606;2023-07-09T05:12:47;49.66;38.34;60.14;;
74496;Laerm;62979;55.720;37.606;2023-07-09T05:15:16;48.54;38.41;61.65;;
74496;Laerm;62979;55.720;37.606;2023-07-09T05:17:44;47.50;40.19;59.95;;
74496;Laerm;62979;55.720;37.606;2023-07-09T05:20:13;50.88;40.79;61.58;;
74496;Laerm;62979;55.720;37.606;2023-07-09T05:22:40;50.98;40.76;63.38;;
74496;Laerm;62979;55.720;37.606;2023-07-09T05:25:08;49.60;40.34;64.28;;
74496;Laerm;62979;55.720;37.606;2023-07-09T05:27:35;56.34;40.67;70.31;;
74496;Laerm;62979;55.720;37.606;2023-07-09T05:30:03;50.54;40.24;60.11;;
74496;Laerm;62979;55.720;37.606;2023-07-09T05:32:30;51.14;40.09;62.96;;
74496;Laerm;62979;55.720;37.606;2023-07-09T05:34:57;54.50;41.53;67.93;;
74496;Laerm;62979;55.720;37.606;2023-07-09T05:37:25;52.34;43.18;61.89;;
74496;Laerm;62979;55.720;37.606;2023-07-09T05:39:52;51.05;40.92;60.34;;
74496;Laerm;62979;55.720;37.606;2023-07-09T05:42:19;51.60;41.83;61.02;;
74496;Laerm;62979;55.720;37.606;2023-07-09T05:44:46;52.50;41.10;63.03;;
74496;Laerm;62979;55.720;37.606;2023-07-09T05:47:13;51.51;42.76;61.13;;
74496;Laerm;62979;55.720;37.606;2023-07-09T05:49:40;58.97;41.07;72.77;;
74496;Laerm;62979;55.720;37.606;2023-07-09T05:52:07;55.36;39.80;73.88;;
74496;Laerm;62979;55.720;37.606;2023-07-09T05:54:35;47.01;39.62;58.15;;
74496;Laerm;62979;55.720;37.606;2023-07-09T05:57:02;61.89;40.48;75.76;;
74496;Laerm;62979;55.720;37.606;2023-07-09T05:59:29;64.19;48.72;79.89;;
74496;Laerm;62979;55.720;37.606;2023-07-09T06:01:57;63.17;46.87;79.20;;
74496;Laerm;62979;55.720;37.606;2023-07-09T06:04:26;50.48;44.09;61.63;;
74496;Laerm;62979;55.720;37.606;2023-07-09T06:06:53;61.92;44.64;77.03;;
74496;Laerm;62979;55.720;37.606;2023-07-09T06:09:21;56.86;45.92;69.13;;
74496;Laerm;62979;55.720;37.606;2023-07-09T06:11:49;55.75;43.42;71.95;;
74496;Laerm;62979;55.720;37.606;2023-07-09T06:14:18;50.75;42.57;60.36;;
74496;Laerm;62979;55.720;37.606;2023-07-09T06:16:45;59.80;43.59;75.37;;
74496;Laerm;62979;55.720;37.606;2023-07-09T06:19:12;54.86;42.21;65.82;;
74496;Laerm;62979;55.720;37.606;2023-07-09T06:21:39;50.80;45.37;59.33;;
74496;Laerm;62979;55.720;37.606;2023-07-09T06:24:06;52.15;45.44;61.26;;
74496;Laerm;62979;55.720;37.606;2023-07-09T06:26:34;52.75;45.71;64.06;;
74496;Laerm;62979;55.720;37.606;2023-07-09T06:29:03;49.98;41.24;60.57;;
74496;Laerm;62979;55.720;37.606;2023-07-09T06:31:30;52.14;40.77;62.55;;
74496;Laerm;62979;55.720;37.606;2023-07-09T06:33:57;51.63;45.39;61.67;;
74496;Laerm;62979;55.720;37.606;2023-07-09T06:49:23;52.64;43.69;66.44;;
74496;Laerm;62979;55.720;37.606;2023-07-09T06:51:50;51.18;44.52;61.54;;
74496;Laerm;62979;55.720;37.606;2023-07-09T06:54:17;55.24;46.18;73.91;;
74496;Laerm;62979;55.720;37.606;2023-07-09T06:56:44;53.34;46.59;63.17;;
74496;Laerm;62979;55.720;37.606;2023-07-09T06:59:11;52.02;41.53;60.26;;
74496;Laerm;62979;55.720;37.606;2023-07-09T07:01:38;50.85;42.08;61.86;;
74496;Laerm;62979;55.720;37.606;2023-07-09T07:04:05;50.96;42.22;63.45;;
74496;Laerm;62979;55.720;37.606;2023-07-09T07:06:33;53.61;46.04;62.62;;
74496;Laerm;62979;55.720;37.606;2023-07-09T07:09:00;51.50;45.91;58.47;;
74496;Laerm;62979;55.720;37.606;2023-07-09T07:11:27;53.31;44.45;63.55;;
74496;Laerm;62979;55.720;37.606;2023-07-09T07:13:55;54.10;44.48;69.69;;
74496;Laerm;62979;55.720;37.606;2023-07-09T07:16:23;59.02;45.62;76.44;;
74496;Laerm;62979;55.720;37.606;2023-07-09T07:18:50;52.71;46.59;62.38;;
74496;Laerm;62979;55.720;37.606;2023-07-09T07:21:17;51.30;46.24;64.40;;
74496;Laerm;62979;55.720;37.606;2023-07-09T07:23:45;55.53;47.09;65.79;;
74496;Laerm;62979;55.720;37.606;2023-07-09T07:26:12;53.57;45.46;62.95;;
74496;Laerm;62979;55.720;37.606;2023-07-09T07:28:39;54.06;45.48;71.69;;
74496;Laerm;62979;55.720;37.606;2023-07-09T07:31:08;54.77;45.08;70.74;;
74496;Laerm;62979;55.720;37.606;2023-07-09T07:33:38;53.37;47.48;60.92;;
74496;Laerm;62979;55.720;37.606;2023-07-09T07:36:06;52.13;46.05;62.27;;
74496;Laerm;62979;55.720;37.606;2023-07-09T07:38:33;51.36;43.97;62.87;;
74496;Laerm;62979;55.720;37.606;2023-07-09T07:41:02;51.12;45.73;58.32;;
74496;Laerm;62979;55.720;37.606;2023-07-09T07:43:30;51.07;46.00;59.48;;
74496;Laerm;62979;55.720;37.606;2023-07-09T07:45:57;53.87;45.90;62.55;;
74496;Laerm;62979;55.720;37.606;2023-07-09T07:48:23;52.65;47.02;59.50;;
74496;Laerm;62979;55.720;37.606;2023-07-09T07:50:50;52.21;43.95;62.92;;
74496;Laerm;62979;55.720;37.606;2023-07-09T07:53:17;53.40;43.33;62.03;;
74496;Laerm;62979;55.720;37.606;2023-07-09T07:55:44;52.12;44.53;61.07;;
74496;Laerm;62979;55.720;37.606;2023-07-09T07:58:13;53.02;46.98;59.44;;
74496;Laerm;62979;55.720;37.606;2023-07-09T08:00:40;54.92;44.35;63.56;;
74496;Laerm;62979;55.720;37.606;2023-07-09T08:03:07;54.03;44.10;64.82;;
74496;Laerm;62979;55.720;37.606;2023-07-09T08:05:34;53.81;45.70;64.60;;
74496;Laerm;62979;55.720;37.606;2023-07-09T08:08:01;53.16;47.55;64.57;;
74496;Laerm;62979;55.720;37.606;2023-07-09T08:10:28;59.76;49.77;73.20;;
74496;Laerm;62979;55.720;37.606;2023-07-09T08:12:55;62.09;47.62;75.26;;
74496;Laerm;62979;55.720;37.606;2023-07-09T08:15:24;57.33;47.31;67.92;;
74496;Laerm;62979;55.720;37.606;2023-07-09T08:17:51;61.82;51.25;79.47;;
74496;Laerm;62979;55.720;37.606;2023-07-09T08:20:18;52.54;45.75;70.13;;
74496;Laerm;62979;55.720;37.606;2023-07-09T08:22:45;53.85;46.28;68.31;;
74496;Laerm;62979;55.720;37.606;2023-07-09T08:25:13;53.58;46.33;61.45;;
74496;Laerm;62979;55.720;37.606;2023-07-09T08:27:40;51.54;45.89;63.15;;
74496;Laerm;62979;55.720;37.606;2023-07-09T08:30:08;54.91;47.89;71.40;;
74496;Laerm;62979;55.720;37.606;2023-07-09T08:32:37;54.33;47.02;64.01;;
74496;Laerm;62979;55.720;37.606;2023-07-09T08:35:05;54.45;46.12;63.52;;
74496;Laerm;62979;55.720;37.606;2023-07-09T08:37:32;53.55;42.51;64.11;;
74496;Laerm;62979;55.720;37.606;2023-07-09T08:39:58;54.54;43.57;70.03;;
74496;Laerm;62979;55.720;37.606;2023-07-09T08:42:31;54.97;48.56;65.00;;
74496;Laerm;62979;55.720;37.606;2023-07-09T08:45:16;54.23;44.54;65.88;;
74496;Laerm;62979;55.720;37.606;2023-07-09T08:48:01;52.70;45.35;68.07;;
74496;Laerm;62979;55.720;37.606;2023-07-09T08:50:36;55.18;44.76;66.68;;
74496;Laerm;62979;55.720;37.606;2023-07-09T08:53:09;61.23;56.60;66.88;;
74496;Laerm;62979;55.720;37.606;2023-07-09T08:55:41;61.33;56.52;67.61;;
74496;Laerm;62979;55.720;37.606;2023-07-09T08:58:20;53.80;46.47;65.77;;
74496;Laerm;62979;55.720;37.606;2023-07-09T09:00:54;54.58;47.19;64.80;;
74496;Laerm;62979;55.720;37.606;2023-07-09T09:03:32;51.95;43.60;63.34;;
74496;Laerm;62979;55.720;37.606;2023-07-09T09:06:11;59.33;45.37;75.39;;
74496;Laerm;62979;55.720;37.606;2023-07-09T09:08:46;60.81;46.34;82.46;;
74496;Laerm;62979;55.720;37.606;2023-07-09T09:11:22;56.53;47.49;69.10;;
74496;Laerm;62979;55.720;37.606;2023-07-09T09:13:56;53.70;45.89;63.32;;
74496;Laerm;62979;55.720;37.606;2023-07-09T09:16:30;59.52;45.50;69.93;;
74496;Laerm;62979;55.720;37.606;2023-07-09T09:19:01;51.11;45.22;59.71;;
74496;Laerm;62979;55.720;37.606;2023-07-09T09:21:33;53.46;46.52;62.59;;
74496;Laerm;62979;55.720;37.606;2023-07-09T09:24:14;58.11;49.32;69.36;;
74496;Laerm;62979;55.720;37.606;2023-07-09T09:26:43;56.86;47.21;65.61;;
74496;Laerm;62979;55.720;37.606;2023-07-09T09:29:13;60.12;50.61;67.59;;
74496;Laerm;62979;55.720;37.606;2023-07-09T09:31:44;62.71;52.73;74.51;;
74496;Laerm;62979;55.720;37.606;2023-07-09T09:34:22;64.64;49.09;87.55;;
74496;Laerm;62979;55.720;37.606;2023-07-09T09:36:49;56.32;47.88;70.69;;
74496;Laerm;62979;55.720;37.606;2023-07-09T09:39:17;57.81;47.68;68.19;;
74496;Laerm;62979;55.720;37.606;2023-07-09T09:41:45;52.27;45.21;65.91;;
74496;Laerm;62979;55.720;37.606;2023-07-09T09:44:19;53.66;46.23;63.40;;
74496;Laerm;62979;55.720;37.606;2023-07-09T09:46:48;53.26;45.65;65.05;;
74496;Laerm;62979;55.720;37.606;2023-07-09T09:49:16;55.00;46.33;64.24;;
74496;Laerm;62979;55.720;37.606;2023-07-09T09:51:46;54.51;42.45;66.60;;
74496;Laerm;62979;55.720;37.606;2023-07-09T09:54:19;53.32;45.62;65.64;;
74496;Laerm;62979;55.720;37.606;2023-07-09T09:56:48;55.43;47.15;66.25;;
74496;Laerm;62979;55.720;37.606;2023-07-09T09:59:20;54.62;47.32;63.19;;
74496;Laerm;62979;55.720;37.606;2023-07-09T10:01:56;53.37;45.44;63.38;;
74496;Laerm;62979;55.720;37.606;2023-07-09T10:04:23;53.52;45.98;63.05;;
74496;Laerm;62979;55.720;37.606;2023-07-09T10:06:56;53.90;46.91;64.79;;
74496;Laerm;62979;55.720;37.606;2023-07-09T10:09:45;54.83;47.68;66.50;;
74496;Laerm;62979;55.720;37.606;2023-07-09T10:12:34;56.44;46.93;69.62;;
74496;Laerm;62979;55.720;37.606;2023-07-09T10:15:16;52.46;42.10;60.91;;
74496;Laerm;62979;55.720;37.606;2023-07-09T10:17:56;52.72;45.42;60.08;;
74496;Laerm;62979;55.720;37.606;2023-07-09T10:20:36;51.72;46.37;61.62;;
74496;Laerm;62979;55.720;37.606;2023-07-09T10:23:26;51.84;46.15;61.11;;
74496;Laerm;62979;55.720;37.606;2023-07-09T10:26:02;53.14;46.19;74.76;;
74496;Laerm;62979;55.720;37.606;2023-07-09T10:29:00;53.17;43.00;60.73;;
74496;Laerm;62979;55.720;37.606;2023-07-09T10:31:42;50.69;45.72;59.23;;
74496;Laerm;62979;55.720;37.606;2023-07-09T10:34:27;52.18;46.24;59.83;;
74496;Laerm;62979;55.720;37.606;2023-07-09T10:37:36;53.01;48.09;61.43;;
74496;Laerm;62979;55.720;37.606;2023-07-09T10:40:13;53.15;46.55;62.73;;
74496;Laerm;62979;55.720;37.606;2023-07-09T10:42:48;52.93;45.74;65.55;;
74496;Laerm;62979;55.720;37.606;2023-07-09T10:45:27;51.06;46.49;65.24;;
74496;Laerm;62979;55.720;37.606;2023-07-09T10:47:59;52.94;46.29;67.33;;
74496;Laerm;62979;55.720;37.606;2023-07-09T10:50:33;53.03;47.65;63.91;;
74496;Laerm;62979;55.720;37.606;2023-07-09T10:53:09;59.22;49.16;69.85;;
74496;Laerm;62979;55.720;37.606;2023-07-09T10:55:47;55.94;44.82;80.22;;
74496;Laerm;62979;55.720;37.606;2023-07-09T10:58:31;55.40;47.23;73.95;;
74496;Laerm;62979;55.720;37.606;2023-07-09T11:01:02;58.98;48.48;77.50;;
74496;Laerm;62979;55.720;37.606;2023-07-09T11:03:40;53.01;47.41;63.09;;
74496;Laerm;62979;55.720;37.606;2023-07-09T11:06:19;53.84;44.35;62.35;;
74496;Laerm;62979;55.720;37.606;2023-07-09T11:08:49;55.76;47.39;64.69;;
74496;Laerm;62979;55.720;37.606;2023-07-09T11:11:25;55.16;48.94;69.69;;
74496;Laerm;62979;55.720;37.606;2023-07-09T11:14:01;53.40;46.47;62.96;;
74496;Laerm;62979;55.720;37.606;2023-07-09T11:16:36;55.47;48.47;68.66;;
74496;Laerm;62979;55.720;37.606;2023-07-09T11:19:06;53.52;44.74;69.33;;
74496;Laerm;62979;55.720;37.606;2023-07-09T11:21:45;53.21;46.13;60.20;;
74496;Laerm;62979;55.720;37.606;2023-07-09T11:24:32;53.56;47.83;59.86;;
74496;Laerm;62979;55.720;37.606;2023-07-09T11:27:01;56.72;46.77;67.63;;
74496;Laerm;62979;55.720;37.606;2023-07-09T11:29:28;54.44;48.40;64.04;;
74496;Laerm;62979;55.720;37.606;2023-07-09T11:32:08;63.03;48.10;81.40;;
74496;Laerm;62979;55.720;37.606;2023-07-09T11:34:45;55.81;45.07;66.19;;
74496;Laerm;62979;55.720;37.606;2023-07-09T11:37:14;52.69;45.18;60.75;;
74496;Laerm;62979;55.720;37.606;2023-07-09T11:39:45;56.57;45.37;79.16;;
74496;Laerm;62979;55.720;37.606;2023-07-09T11:42:30;54.86;46.49;66.76;;
74496;Laerm;62979;55.720;37.606;2023-07-09T11:45:06;56.86;47.41;67.48;;
74496;Laerm;62979;55.720;37.606;2023-07-09T11:47:41;52.74;42.09;66.88;;
74496;Laerm;62979;55.720;37.606;2023-07-09T11:50:22;57.69;46.83;68.43;;
74496;Laerm;62979;55.720;37.606;2023-07-09T11:52:55;52.34;46.41;60.78;;
74496;Laerm;62979;55.720;37.606;2023-07-09T11:55:29;53.49;46.37;66.61;;
74496;Laerm;62979;55.720;37.606;2023-07-09T11:58:03;53.09;45.78;60.12;;
74496;Laerm;62979;55.720;37.606;2023-07-09T12:00:39;55.09;47.28;64.67;;
74496;Laerm;62979;55.720;37.606;2023-07-09T12:03:09;53.66;45.68;63.05;;
74496;Laerm;62979;55.720;37.606;2023-07-09T12:05:38;52.49;46.42;59.85;;
74496;Laerm;62979;55.720;37.606;2023-07-09T12:08:07;54.23;46.28;65.82;;
74496;Laerm;62979;55.720;37.606;2023-07-09T12:10:36;53.61;47.56;61.90;;
74496;Laerm;62979;55.720;37.606;2023-07-09T12:13:04;62.84;46.27;83.36;;
74496;Laerm;62979;55.720;37.606;2023-07-09T12:15:31;53.23;46.77;63.28;;
74496;Laerm;62979;55.720;37.606;2023-07-09T12:18:01;61.82;47.43;76.00;;
74496;Laerm;62979;55.720;37.606;2023-07-09T12:20:34;55.57;48.02;72.80;;
74496;Laerm;62979;55.720;37.606;2023-07-09T12:23:11;53.89;47.76;61.39;;
74496;Laerm;62979;55.720;37.606;2023-07-09T12:25:38;67.56;50.63;90.13;;
74496;Laerm;62979;55.720;37.606;2023-07-09T12:28:13;61.69;45.09;80.59;;
74496;Laerm;62979;55.720;37.606;2023-07-09T12:30:45;54.70;47.78;61.86;;
74496;Laerm;62979;55.720;37.606;2023-07-09T12:33:17;52.93;47.85;60.88;;
74496;Laerm;62979;55.720;37.606;2023-07-09T12:35:45;53.43;47.86;63.46;;
74496;Laerm;62979;55.720;37.606;2023-07-09T12:38:19;53.91;45.31;65.61;;
74496;Laerm;62979;55.720;37.606;2023-07-09T12:40:48;54.78;48.68;62.19;;
74496;Laerm;62979;55.720;37.606;2023-07-09T12:43:23;54.21;47.62;71.96;;
74496;Laerm;62979;55.720;37.606;2023-07-09T12:45:52;53.54;47.14;62.55;;
74496;Laerm;62979;55.720;37.606;2023-07-09T12:48:23;53.25;46.23;62.79;;
74496;Laerm;62979;55.720;37.606;2023-07-09T12:50:51;54.28;47.33;64.65;;
74496;Laerm;62979;55.720;37.606;2023-07-09T12:53:20;54.20;46.16;62.55;;
74496;Laerm;62979;55.720;37.606;2023-07-09T12:55:48;53.40;48.40;61.15;;
74496;Laerm;62979;55.720;37.606;2023-07-09T12:58:20;52.90;45.77;60.37;;
74496;Laerm;62979;55.720;37.606;2023-07-09T13:00:50;52.70;45.36;62.00;;
74496;Laerm;62979;55.720;37.606;2023-07-09T13:03:20;64.27;45.91;81.10;;
74496;Laerm;62979;55.720;37.606;2023-07-09T13:05:59;54.21;45.89;65.37;;
74496;Laerm;62979;55.720;37.606;2023-07-09T13:08:30;63.89;47.21;77.89;;
74496;Laerm;62979;55.720;37.606;2023-07-09T13:10:57;64.12;48.35;78.67;;
74496;Laerm;62979;55.720;37.606;2023-07-09T13:13:27;58.31;47.61;84.77;;
74496;Laerm;62979;55.720;37.606;2023-07-09T13:15:57;62.37;49.20;78.06;;
74496;Laerm;62979;55.720;37.606;2023-07-09T13:18:27;53.24;44.84;62.69;;
74496;Laerm;62979;55.720;37.606;2023-07-09T13:20:57;53.49;48.10;63.05;;
74496;Laerm;62979;55.720;37.606;2023-07-09T13:23:27;52.88;48.20;62.37;;
74496;Laerm;62979;55.720;37.606;2023-07-09T13:25:56;52.49;47.03;59.60;;
74496;Laerm;62979;55.720;37.606;2023-07-09T13:28:28;54.35;46.95;61.22;;
74496;Laerm;62979;55.720;37.606;2023-07-09T13:30:58;55.15;46.51;64.11;;
74496;Laerm;62979;55.720;37.606;2023-07-09T13:33:26;54.60;46.50;64.97;;
74496;Laerm;62979;55.720;37.606;2023-07-09T13:35:53;55.01;48.44;65.01;;
74496;Laerm;62979;55.720;37.606;2023-07-09T13:38:21;52.20;46.23;60.85;;
74496;Laerm;62979;55.720;37.606;2023-07-09T13:40:54;55.32;48.88;67.32;;
74496;Laerm;62979;55.720;37.606;2023-07-09T13:43:30;54.59;47.03;64.78;;
74496;Laerm;62979;55.720;37.606;2023-07-09T13:45:58;53.86;46.28;69.55;;
74496;Laerm;62979;55.720;37.606;2023-07-09T13:48:26;52.63;45.58;64.88;;
74496;Laerm;62979;55.720;37.606;2023-07-09T13:50:55;57.57;47.61;73.22;;
74496;Laerm;62979;55.720;37.606;2023-07-09T13:53:25;53.73;44.67;67.99;;
74496;Laerm;62979;55.720;37.606;2023-07-09T13:55:54;53.94;44.60;69.69;;
74496;Laerm;62979;55.720;37.606;2023-07-09T13:58:23;53.90;44.09;62.94;;
74496;Laerm;62979;55.720;37.606;2023-07-09T14:00:58;54.61;42.65;70.19;;